createdAt,value
2019-06-10T00:00:52.940Z,98149.73
2019-06-10T00:03:24.495Z,98147.55
2019-06-10T00:05:56.106Z,98151.05
2019-06-10T00:08:30.701Z,98147.41
2019-06-10T00:11:04.961Z,98141.16
2019-06-10T00:13:35.180Z,98150.77
2019-06-10T00:16:08.038Z,98157.58
2019-06-10T00:18:43.003Z,98161.19
2019-06-10T00:21:12.985Z,98158.23
2019-06-10T00:23:44.568Z,98149.16
2019-06-10T00:26:16.120Z,98145.12
2019-06-10T00:28:47.699Z,98144.59
2019-06-10T00:31:20.752Z,98139.32
2019-06-10T00:33:52.470Z,98141.61
2019-06-10T00:36:27.038Z,98147.70
2019-06-10T00:38:59.328Z,98159.94
2019-06-10T00:41:31.435Z,98174.80
2019-06-10T00:44:04.085Z,98181.05
2019-06-10T00:46:36.361Z,98188.47
2019-06-10T00:49:09.830Z,98191.97
2019-06-10T00:51:41.507Z,98188.68
2019-06-10T00:54:15.407Z,98183.89
2019-06-10T00:56:46.429Z,98196.54
2019-06-10T00:59:17.977Z,98201.96
2019-06-10T01:01:50.879Z,98199.66
2019-06-10T01:04:22.629Z,98188.06
2019-06-10T01:06:54.206Z,98173.49
2019-06-10T01:09:25.860Z,98168.42
2019-06-10T01:11:57.454Z,98141.08
2019-06-10T01:14:28.988Z,98105.59
2019-06-10T01:17:01.301Z,98120.48
2019-06-10T01:19:33.969Z,98155.69
2019-06-10T01:22:05.995Z,98178.69
2019-06-10T01:24:37.709Z,98184.90
2019-06-10T01:27:11.898Z,98172.36
2019-06-10T01:29:42.541Z,98144.66
2019-06-10T01:32:15.081Z,98137.86
2019-06-10T01:34:46.752Z,98136.08
2019-06-10T01:37:18.394Z,98148.84
2019-06-10T01:39:51.522Z,98142.61
2019-06-10T01:42:23.204Z,98138.50
2019-06-10T01:44:54.760Z,98132.12
2019-06-10T01:47:26.348Z,98116.33
2019-06-10T01:49:57.909Z,98109.06
2019-06-10T01:52:31.677Z,98109.06
2019-06-10T01:55:03.292Z,98109.56
2019-06-10T01:57:34.875Z,98124.53
2019-06-10T02:00:09.952Z,98120.25
2019-06-10T02:02:44.532Z,98122.03
2019-06-10T02:05:15.970Z,98122.89
2019-06-10T02:07:47.754Z,98123.64
2019-06-10T02:10:22.546Z,98097.25
2019-06-10T02:12:52.648Z,98083.50
2019-06-10T02:15:24.220Z,98081.86
2019-06-10T02:17:55.769Z,98077.20
2019-06-10T02:20:27.419Z,98092.99
2019-06-10T02:22:58.977Z,98077.84
2019-06-10T02:25:30.582Z,98082.77
2019-06-10T02:28:02.093Z,98091.84
2019-06-10T02:30:43.135Z,98100.41
2019-06-10T02:33:06.903Z,98106.99
2019-06-10T02:35:44.390Z,98116.75
2019-06-10T02:38:16.950Z,98121.06
2019-06-10T02:40:45.048Z,98106.91
2019-06-10T02:43:23.911Z,98133.60
2019-06-10T02:45:53.044Z,98122.17
2019-06-10T02:48:30.302Z,98113.23
2019-06-10T02:51:08.129Z,98110.42
2019-06-10T02:53:43.357Z,98107.43
2019-06-10T02:56:14.918Z,98085.68
2019-06-10T02:58:47.424Z,98099.87
2019-06-10T03:01:21.480Z,98093.88
2019-06-10T03:03:54.206Z,98087.87
2019-06-10T03:06:33.374Z,98077.30
2019-06-10T03:08:58.889Z,98090.47
2019-06-10T03:11:36.470Z,98118.28
2019-06-10T03:14:03.829Z,98146.27
2019-06-10T03:16:42.292Z,98166.60
2019-06-10T03:19:14.009Z,98146.73
2019-06-10T03:21:45.578Z,98128.50
2019-06-10T03:24:17.128Z,98119.95
2019-06-10T03:26:48.699Z,98110.20
2019-06-10T03:29:21.252Z,98109.38
2019-06-10T03:31:55.178Z,98111.51
2019-06-10T03:34:33.714Z,98121.16
2019-06-10T03:37:02.339Z,98111.80
2019-06-10T03:39:33.497Z,98128.49
2019-06-10T03:42:05.076Z,98139.42
2019-06-10T03:44:37.621Z,98126.11
2019-06-10T03:47:09.195Z,98111.55
2019-06-10T03:49:49.886Z,98102.72
2019-06-10T03:52:14.075Z,98072.80
2019-06-10T03:54:45.655Z,98060.62
2019-06-10T03:57:17.227Z,98052.65
2019-06-10T03:59:48.818Z,98042.11
2019-06-10T04:02:23.454Z,98048.34
2019-06-10T04:04:53.766Z,98058.42
2019-06-10T04:07:28.252Z,98059.59
2019-06-10T04:09:58.618Z,98051.69
2019-06-10T04:12:32.586Z,98056.17
2019-06-10T04:15:03.597Z,98051.25
2019-06-10T04:17:35.224Z,98027.70
2019-06-10T04:20:12.125Z,98030.91
2019-06-10T04:22:40.886Z,98016.94
2019-06-10T04:25:12.580Z,98018.31
2019-06-10T04:27:44.123Z,98017.84
2019-06-10T04:30:16.600Z,98016.53
2019-06-10T04:32:48.595Z,98014.18
2019-06-10T04:35:20.880Z,98017.67
2019-06-10T04:37:53.456Z,98011.55
2019-06-10T04:40:26.313Z,98018.78
2019-06-10T04:42:58.299Z,98036.59
2019-06-10T04:45:32.213Z,98022.27
2019-06-10T04:48:03.233Z,98023.73
2019-06-10T04:50:42.163Z,98032.98
2019-06-10T04:53:08.034Z,98029.56
2019-06-10T04:55:39.623Z,98030.30
2019-06-10T04:58:12.978Z,98027.22
2019-06-10T05:00:44.628Z,98025.11
2019-06-10T05:03:16.203Z,98022.55
2019-06-10T05:05:47.725Z,98032.81
2019-06-10T05:08:19.275Z,98044.83
2019-06-10T05:10:52.844Z,98044.97
2019-06-10T05:13:25.574Z,98043.80
2019-06-10T05:15:57.401Z,98040.99
2019-06-10T05:18:30.218Z,98045.27
2019-06-10T05:21:02.840Z,98049.78
2019-06-10T05:23:34.817Z,98059.59
2019-06-10T05:26:06.384Z,98060.62
2019-06-10T05:28:37.940Z,98060.94
2019-06-10T05:31:09.491Z,98065.91
2019-06-10T05:33:42.611Z,98060.87
2019-06-10T05:36:14.493Z,98061.95
2019-06-10T05:38:46.182Z,98064.96
2019-06-10T05:41:17.783Z,98064.92
2019-06-10T05:43:49.342Z,98054.73
2019-06-10T05:46:23.674Z,98056.63
2019-06-10T05:48:54.239Z,98067.75
2019-06-10T05:51:26.425Z,98073.90
2019-06-10T05:53:59.221Z,98078.42
2019-06-10T05:56:33.778Z,98088.06
2019-06-10T05:59:04.453Z,98086.95
2019-06-10T06:01:38.407Z,98079.89
2019-06-10T06:04:09.322Z,98069.34
2019-06-10T06:06:42.465Z,98063.28
2019-06-10T06:09:14.218Z,98068.88
2019-06-10T06:11:45.916Z,98083.25
2019-06-10T06:14:17.575Z,98084.94
2019-06-10T06:16:49.156Z,98084.48
2019-06-10T06:19:22.976Z,98081.53
2019-06-10T06:21:54.013Z,98084.06
2019-06-10T06:24:25.655Z,98085.28
2019-06-10T06:26:57.255Z,98086.30
2019-06-10T06:29:28.924Z,98085.22
2019-06-10T06:32:02.608Z,98083.74
2019-06-10T06:34:35.791Z,98085.77
2019-06-10T06:37:06.980Z,98091.91
2019-06-10T06:39:38.633Z,98088.30
2019-06-10T06:42:12.561Z,98092.97
2019-06-10T06:44:43.529Z,98097.66
2019-06-10T06:47:15.193Z,98110.61
2019-06-10T06:49:46.760Z,98121.53
2019-06-10T06:52:34.657Z,98124.84
2019-06-10T06:54:53.034Z,98124.88
2019-06-10T06:57:24.751Z,98128.38
2019-06-10T06:59:56.390Z,98134.67
2019-06-10T07:02:27.954Z,98138.17
2019-06-10T07:04:59.536Z,98138.36
2019-06-10T07:07:33.112Z,98139.91
2019-06-10T07:10:06.175Z,98132.53
2019-06-10T07:12:39.394Z,98138.98
2019-06-10T07:15:12.914Z,98133.42
2019-06-10T07:17:45.657Z,98142.78
2019-06-10T07:20:17.615Z,98136.67
2019-06-10T07:22:49.204Z,98131.74
2019-06-10T07:25:23.005Z,98122.31
2019-06-10T07:27:54.060Z,98119.52
2019-06-10T07:30:26.024Z,98118.23
2019-06-10T07:32:57.626Z,98120.04
2019-06-10T07:35:29.207Z,98128.12
2019-06-10T07:38:03.034Z,98130.80
2019-06-10T07:40:35.911Z,98126.01
2019-06-10T07:43:07.361Z,98123.19
2019-06-10T07:45:40.819Z,98119.69
2019-06-10T07:48:12.360Z,98122.86
2019-06-10T07:50:45.672Z,98115.55
2019-06-10T07:53:17.251Z,98104.13
2019-06-10T07:55:48.812Z,98112.56
2019-06-10T07:58:22.427Z,98118.87
2019-06-10T08:00:53.700Z,98121.02
2019-06-10T08:03:25.305Z,98128.26
2019-06-10T08:05:56.891Z,98126.77
2019-06-10T08:08:28.478Z,98130.85
2019-06-10T08:11:03.070Z,98134.83
2019-06-10T08:13:33.375Z,98131.48
2019-06-10T08:16:05.032Z,98136.02
2019-06-10T08:18:44.469Z,98132.06
2019-06-10T08:21:12.152Z,98129.97
2019-06-10T08:23:46.543Z,98134.67
2019-06-10T08:26:16.669Z,98136.69
2019-06-10T08:28:48.402Z,98127.83
2019-06-10T08:31:22.374Z,98125.56
2019-06-10T08:33:53.747Z,98123.67
2019-06-10T08:36:25.373Z,98111.17
2019-06-10T08:38:57.160Z,98099.80
2019-06-10T08:41:28.802Z,98094.37
2019-06-10T08:44:02.348Z,98088.45
2019-06-10T08:46:33.619Z,98088.48
2019-06-10T08:49:05.214Z,98084.05
2019-06-10T08:51:37.105Z,98075.60
2019-06-10T08:54:08.699Z,98059.86
2019-06-10T08:56:42.884Z,98044.28
2019-06-10T08:59:16.286Z,98047.45
2019-06-10T09:01:51.555Z,98035.99
2019-06-10T09:04:22.804Z,98044.12
2019-06-10T09:06:54.466Z,98044.46
2019-06-10T09:09:26.077Z,98041.78
2019-06-10T09:11:57.654Z,98028.95
2019-06-10T09:14:29.315Z,98033.58
2019-06-10T09:17:03.444Z,98033.72
2019-06-10T09:19:34.224Z,98025.92
2019-06-10T09:22:05.827Z,98014.11
2019-06-10T09:24:37.461Z,98006.65
2019-06-10T09:27:09.070Z,98002.80
2019-06-10T09:29:41.710Z,97999.42
2019-06-10T09:32:13.957Z,97996.78
2019-06-10T09:34:49.673Z,97990.45
2019-06-10T09:37:18.846Z,97972.21
2019-06-10T09:39:58.351Z,97962.12
2019-06-10T09:42:24.019Z,97949.13
2019-06-10T09:44:55.919Z,97927.92
2019-06-10T09:47:28.477Z,97912.24
2019-06-10T09:50:00.058Z,97911.45
2019-06-10T09:52:32.850Z,97898.02
2019-06-10T09:55:05.214Z,97895.30
2019-06-10T09:57:37.257Z,97874.70
2019-06-10T10:00:12.436Z,97871.34
2019-06-10T10:02:48.003Z,97865.98
2019-06-10T10:05:17.492Z,97854.83
2019-06-10T10:07:52.106Z,97840.72
2019-06-10T10:10:32.726Z,97832.35
2019-06-10T10:13:04.626Z,97833.69
2019-06-10T10:15:36.345Z,97835.38
2019-06-10T10:18:09.990Z,97847.09
2019-06-10T10:20:45.180Z,97853.65
2019-06-10T10:23:15.882Z,97849.89
2019-06-10T10:25:48.227Z,97853.42
2019-06-10T10:28:23.007Z,97865.22
2019-06-10T10:30:57.594Z,97865.85
2019-06-10T10:33:30.133Z,97869.23
2019-06-10T10:36:02.758Z,97878.48
2019-06-10T10:38:34.901Z,97884.94
2019-06-10T10:41:07.000Z,97897.88
2019-06-10T10:43:38.671Z,97915.45
2019-06-10T10:46:13.478Z,97925.75
2019-06-10T10:48:44.969Z,97921.86
2019-06-10T10:51:17.607Z,97912.83
2019-06-10T10:54:16.952Z,97911.45
2019-06-10T10:56:23.079Z,97900.36
2019-06-10T10:58:56.361Z,97893.80
2019-06-10T11:01:27.951Z,97885.54
2019-06-10T11:04:02.714Z,97890.55
2019-06-10T11:06:33.283Z,97891.34
2019-06-10T11:09:08.887Z,97888.20
2019-06-10T11:11:44.105Z,97888.39
2019-06-10T11:14:15.555Z,97883.31
2019-06-10T11:16:47.250Z,97887.08
2019-06-10T11:19:19.201Z,97882.98
2019-06-10T11:21:51.587Z,97880.03
2019-06-10T11:24:36.367Z,97871.26
2019-06-10T11:26:58.359Z,97860.88
2019-06-10T11:29:32.707Z,97842.98
2019-06-10T11:32:03.482Z,97842.56
2019-06-10T11:34:35.178Z,97830.23
2019-06-10T11:37:06.775Z,97823.13
2019-06-10T11:39:38.801Z,97822.83
2019-06-10T11:42:13.073Z,97798.67
2019-06-10T11:44:43.687Z,97794.64
2019-06-10T11:47:18.012Z,97797.08
2019-06-10T11:49:52.290Z,97799.55
2019-06-10T11:52:23.079Z,97806.02
2019-06-10T11:55:05.437Z,97805.50
2019-06-10T11:57:28.127Z,97800.27
2019-06-10T11:59:59.783Z,97803.88
2019-06-10T12:02:32.956Z,97811.66
2019-06-10T12:05:05.030Z,97829.63
2019-06-10T12:07:36.610Z,97834.84
2019-06-10T12:10:12.905Z,97834.17
2019-06-10T12:12:43.969Z,97827.59
2019-06-10T12:15:16.154Z,97837.20
2019-06-10T12:17:53.558Z,97838.77
2019-06-10T12:20:22.822Z,97836.84
2019-06-10T12:22:58.285Z,97846.57
2019-06-10T12:25:36.850Z,97845.23
2019-06-10T12:28:07.011Z,97852.63
2019-06-10T12:30:35.515Z,97851.89
2019-06-10T12:33:07.128Z,97846.72
2019-06-10T12:35:38.728Z,97816.81
2019-06-10T12:38:13.071Z,97790.43
2019-06-10T12:40:43.612Z,97808.40
2019-06-10T12:43:15.178Z,97825.05
2019-06-10T12:45:46.765Z,97814.53
2019-06-10T12:48:18.336Z,97793.75
2019-06-10T12:50:49.954Z,97782.63
2019-06-10T12:53:22.981Z,97784.75
2019-06-10T12:55:55.836Z,97793.11
2019-06-10T12:58:27.958Z,97806.23
2019-06-10T13:00:59.637Z,97812.92
2019-06-10T13:03:32.934Z,97839.28
2019-06-10T13:06:09.054Z,97860.97
2019-06-10T13:08:39.201Z,97855.61
2019-06-10T13:11:13.274Z,97847.89
2019-06-10T13:13:44.203Z,97819.23
2019-06-10T13:16:17.596Z,97789.20
2019-06-10T13:18:49.198Z,97762.22
2019-06-10T13:21:22.742Z,97754.42
2019-06-10T13:23:54.820Z,97772.11
2019-06-10T13:26:27.304Z,97795.81
2019-06-10T13:28:59.028Z,97803.79
2019-06-10T13:31:32.873Z,97811.95
2019-06-10T13:34:09.054Z,97814.61
2019-06-10T13:36:37.264Z,97820.92
2019-06-10T13:39:10.607Z,97831.08
2019-06-10T13:41:43.852Z,97821.52
2019-06-10T13:44:16.819Z,97813.24
2019-06-10T13:46:48.603Z,97808.25
2019-06-10T13:49:22.753Z,97810.73
2019-06-10T13:51:53.513Z,97809.14
2019-06-10T13:54:25.144Z,97807.73
2019-06-10T13:56:56.726Z,97810.29
2019-06-10T13:59:28.323Z,97817.38
2019-06-10T14:04:33.308Z,97834.67
2019-06-10T14:07:08.668Z,97850.38
2019-06-10T14:09:38.612Z,97864.39
2019-06-10T14:12:14.746Z,97846.03
2019-06-10T14:14:43.491Z,97839.98
2019-06-10T14:17:19.014Z,97827.16
2019-06-10T14:19:48.358Z,97844.80
2019-06-10T14:22:22.662Z,97847.66
2019-06-10T14:24:54.325Z,97845.05
2019-06-10T14:27:25.928Z,97821.70
2019-06-10T14:29:57.507Z,97808.28
2019-06-10T14:32:29.133Z,97812.80
2019-06-10T14:35:00.714Z,97792.81
2019-06-10T14:37:38.921Z,97822.45
2019-06-10T14:40:07.503Z,97855.70
2019-06-10T14:42:39.546Z,97864.71
2019-06-10T14:45:13.900Z,97855.83
2019-06-10T14:47:45.002Z,97837.95
2019-06-10T14:50:17.421Z,97822.41
2019-06-10T14:52:49.205Z,97819.75
2019-06-10T14:55:23.098Z,97804.52
2019-06-10T14:57:54.040Z,97783.44
2019-06-10T15:00:25.723Z,97763.90
2019-06-10T15:02:57.313Z,97738.76
2019-06-10T15:05:28.905Z,97712.23
2019-06-10T15:08:03.152Z,97708.45
2019-06-10T15:10:33.824Z,97699.80
2019-06-10T15:13:05.460Z,97685.51
2019-06-10T15:15:37.056Z,97678.15
2019-06-10T15:18:09.323Z,97674.16
2019-06-10T15:20:42.848Z,97659.75
2019-06-10T15:23:17.033Z,97664.38
2019-06-10T15:25:52.874Z,97679.55
2019-06-10T15:28:23.285Z,97684.91
2019-06-10T15:30:54.489Z,97692.23
2019-06-10T15:33:26.206Z,97703.19
2019-06-10T15:35:57.883Z,97705.55
2019-06-10T15:38:29.471Z,97700.73
2019-06-10T15:41:01.093Z,97701.23
2019-06-10T15:43:34.562Z,97708.20
2019-06-10T15:46:06.185Z,97720.30
2019-06-10T15:48:37.871Z,97724.45
2019-06-10T15:51:11.025Z,97725.11
2019-06-10T15:53:43.200Z,97737.18
2019-06-10T15:56:27.181Z,97756.19
2019-06-10T15:58:48.824Z,97752.49
2019-06-10T16:01:25.286Z,97752.95
2019-06-10T16:03:53.674Z,97761.34
2019-06-10T16:06:25.264Z,97763.81
2019-06-10T16:08:56.872Z,97770.44
2019-06-10T16:11:41.077Z,97766.46
2019-06-10T16:14:14.666Z,97759.02
2019-06-10T16:16:46.453Z,97761.67
2019-06-10T16:19:19.546Z,97767.95
2019-06-10T16:21:52.468Z,97754.35
2019-06-10T16:24:27.331Z,97757.02
2019-06-10T16:26:57.729Z,97763.00
2019-06-10T16:29:29.305Z,97757.99
2019-06-10T16:32:02.594Z,97753.71
2019-06-10T16:34:34.335Z,97753.55
2019-06-10T16:37:05.983Z,97768.31
2019-06-10T16:39:37.604Z,97777.59
2019-06-10T16:42:09.354Z,97784.06
2019-06-10T16:44:42.361Z,97777.61
2019-06-10T16:47:14.180Z,97773.33
2019-06-10T16:49:45.802Z,97770.35
2019-06-10T16:52:17.480Z,97784.13
2019-06-10T16:54:49.081Z,97791.44
2019-06-10T16:57:23.714Z,97796.41
2019-06-10T16:59:54.012Z,97789.61
2019-06-10T17:02:26.876Z,97781.02
2019-06-10T17:04:58.729Z,97782.66
2019-06-10T17:07:32.702Z,97802.88
2019-06-10T17:10:03.628Z,97808.70
2019-06-10T17:12:35.216Z,97819.47
2019-06-10T17:15:08.520Z,97815.84
2019-06-10T17:17:40.453Z,97809.05
2019-06-10T17:20:13.094Z,97805.76
2019-06-10T17:22:44.778Z,97794.64
2019-06-10T17:25:16.463Z,97792.52
2019-06-10T17:27:48.183Z,97799.64
2019-06-10T17:30:22.389Z,97809.73
2019-06-10T17:32:53.394Z,97808.11
2019-06-10T17:35:26.172Z,97808.28
2019-06-10T17:37:57.959Z,97802.69
2019-06-10T17:40:29.640Z,97808.16
2019-06-10T17:43:02.417Z,97809.48
2019-06-10T17:45:34.128Z,97805.98
2019-06-10T17:48:06.809Z,97800.55
2019-06-10T17:50:38.372Z,97800.38
2019-06-10T17:53:12.566Z,97796.92
2019-06-10T17:55:43.381Z,97783.84
2019-06-10T17:58:14.992Z,97789.48
2019-06-10T18:00:46.645Z,97789.31
2019-06-10T18:03:18.220Z,97777.91
2019-06-10T18:05:49.802Z,97779.40
2019-06-10T18:08:22.962Z,97774.61
2019-06-10T18:10:54.787Z,97782.22
2019-06-10T18:13:26.399Z,97782.22
2019-06-10T18:15:58.019Z,97775.59
2019-06-10T18:18:30.570Z,97767.01
2019-06-10T18:21:03.573Z,97761.72
2019-06-10T18:23:35.392Z,97760.22
2019-06-10T18:26:06.993Z,97749.49
2019-06-10T18:28:57.850Z,97746.17
2019-06-10T18:31:11.929Z,97757.45
2019-06-10T18:33:43.748Z,97754.15
2019-06-10T18:36:15.385Z,97758.13
2019-06-10T18:38:47.036Z,97755.51
2019-06-10T18:41:18.611Z,97739.28
2019-06-10T18:43:50.206Z,97724.79
2019-06-10T18:46:23.202Z,97745.47
2019-06-10T18:48:54.905Z,97755.55
2019-06-10T18:51:27.206Z,97743.17
2019-06-10T18:53:59.106Z,97730.41
2019-06-10T18:56:33.682Z,97725.48
2019-06-10T18:59:15.677Z,97732.77
2019-06-10T19:01:38.676Z,97743.50
2019-06-10T19:04:12.830Z,97735.39
2019-06-10T19:06:43.824Z,97718.03
2019-06-10T19:09:15.570Z,97700.34
2019-06-10T19:11:47.220Z,97724.33
2019-06-10T19:14:18.911Z,97741.69
2019-06-10T19:16:52.449Z,97737.90
2019-06-10T19:19:23.879Z,97735.39
2019-06-10T19:22:05.437Z,97717.55
2019-06-10T19:24:30.273Z,97706.13
2019-06-10T19:27:05.425Z,97699.70
2019-06-10T19:29:42.952Z,97703.00
2019-06-10T19:32:12.426Z,97692.58
2019-06-10T19:34:48.211Z,97691.77
2019-06-10T19:37:16.733Z,97699.53
2019-06-10T19:39:53.178Z,97707.47
2019-06-10T19:42:21.731Z,97708.45
2019-06-10T19:44:53.361Z,97719.03
2019-06-10T19:47:24.983Z,97723.34
2019-06-10T19:49:56.602Z,97728.47
2019-06-10T19:52:28.231Z,97723.98
2019-06-10T19:55:02.516Z,97722.19
2019-06-10T19:57:34.307Z,97712.59
2019-06-10T20:00:12.170Z,97703.67
2019-06-10T20:02:44.528Z,97710.77
2019-06-10T20:05:14.915Z,97711.27
2019-06-10T20:07:50.247Z,97716.22
2019-06-10T20:10:19.818Z,97720.70
2019-06-10T20:12:53.735Z,97717.70
2019-06-10T20:15:25.402Z,97724.16
2019-06-10T20:17:56.987Z,97728.13
2019-06-10T20:20:28.602Z,97731.11
2019-06-10T20:23:03.157Z,97723.17
2019-06-10T20:25:33.539Z,97716.08
2019-06-10T20:28:05.288Z,97716.89
2019-06-10T20:30:37.310Z,97703.67
2019-06-10T20:33:09.104Z,97698.55
2019-06-10T20:35:42.069Z,97696.73
2019-06-10T20:38:13.789Z,97677.55
2019-06-10T20:40:46.023Z,97658.55
2019-06-10T20:43:18.894Z,97670.63
2019-06-10T20:45:50.517Z,97678.22
2019-06-10T20:48:22.447Z,97678.89
2019-06-10T20:50:55.403Z,97683.53
2019-06-10T20:53:27.014Z,97683.70
2019-06-10T20:55:58.581Z,97683.53
2019-06-10T20:58:30.195Z,97691.29
2019-06-10T21:01:04.679Z,97711.62
2019-06-10T21:03:35.570Z,97722.87
2019-06-10T21:06:07.099Z,97733.28
2019-06-10T21:08:39.446Z,97740.40
2019-06-10T21:11:12.908Z,97740.70
2019-06-10T21:13:48.772Z,97736.77
2019-06-10T21:16:22.914Z,97738.92
2019-06-10T21:18:55.534Z,97738.23
2019-06-10T21:21:27.553Z,97734.41
2019-06-10T21:23:59.166Z,97717.38
2019-06-10T21:26:32.532Z,97701.55
2019-06-10T21:29:04.328Z,97693.78
2019-06-10T21:31:36.928Z,97698.72
2019-06-10T21:34:08.561Z,97691.30
2019-06-10T21:36:41.233Z,97677.73
2019-06-10T21:39:12.865Z,97692.77
2019-06-10T21:41:45.636Z,97702.02
2019-06-10T21:44:17.784Z,97699.53
2019-06-10T21:46:50.326Z,97700.20
2019-06-10T21:49:23.638Z,97697.38
2019-06-10T21:51:57.086Z,97691.78
2019-06-10T21:54:28.583Z,97677.89
2019-06-10T21:57:02.482Z,97681.88
2019-06-10T21:59:33.452Z,97682.85
2019-06-10T22:02:05.259Z,97681.22
2019-06-10T22:04:36.892Z,97678.23
2019-06-10T22:07:08.512Z,97675.59
2019-06-10T22:09:42.406Z,97668.66
2019-06-10T22:12:13.468Z,97663.20
2019-06-10T22:14:46.189Z,97664.70
2019-06-10T22:17:17.731Z,97658.09
2019-06-10T22:19:50.579Z,97659.89
2019-06-10T22:22:22.828Z,97653.13
2019-06-10T22:24:55.183Z,97645.55
2019-06-10T22:27:27.684Z,97631.34
2019-06-10T22:29:59.266Z,97618.27
2019-06-10T22:32:32.324Z,97613.66
2019-06-10T22:35:03.953Z,97612.83
2019-06-10T22:37:35.539Z,97606.22
2019-06-10T22:40:07.412Z,97593.20
2019-06-10T22:42:39.067Z,97598.96
2019-06-10T22:45:13.051Z,97605.89
2019-06-10T22:47:44.214Z,97621.26
2019-06-10T22:50:15.831Z,97631.48
2019-06-10T22:52:47.404Z,97628.19
2019-06-10T22:55:18.997Z,97641.70
2019-06-10T22:57:51.878Z,97646.83
2019-06-10T23:00:23.863Z,97652.11
2019-06-10T23:02:56.484Z,97646.99
2019-06-10T23:05:28.677Z,97648.11
2019-06-10T23:08:02.308Z,97679.80
2019-06-10T23:10:33.834Z,97707.52
2019-06-10T23:13:05.519Z,97724.67
2019-06-10T23:15:37.149Z,97734.52
2019-06-10T23:18:08.729Z,97733.52
2019-06-10T23:20:42.580Z,97744.58
2019-06-10T23:23:13.582Z,97774.41
2019-06-10T23:25:45.149Z,97795.80
2019-06-10T23:28:16.719Z,97780.12
2019-06-10T23:30:48.334Z,97727.31
2019-06-10T23:33:19.927Z,97737.02
2019-06-10T23:35:52.556Z,97741.67
2019-06-10T23:38:24.442Z,97703.35
2019-06-10T23:40:57.012Z,97707.13
2019-06-10T23:43:28.759Z,97708.63
2019-06-10T23:46:01.966Z,97697.89
2019-06-10T23:48:33.590Z,97676.95
2019-06-10T23:51:05.284Z,97675.13
2019-06-10T23:53:38.617Z,97662.25
2019-06-10T23:56:10.197Z,97657.61
2019-06-10T23:58:43.319Z,97666.02
